createdAt,value
2023-05-14T00:01:42.400Z,12.15
2023-05-14T00:06:43.795Z,12.07
2023-05-14T00:11:45.205Z,11.99
2023-05-14T00:16:46.655Z,11.86
2023-05-14T00:21:48.355Z,11.87
2023-05-14T00:26:49.776Z,11.79
2023-05-14T00:31:51.439Z,11.63
2023-05-14T00:36:52.939Z,11.48
2023-05-14T00:41:54.396Z,11.23
2023-05-14T00:46:55.975Z,11.06
2023-05-14T00:51:57.561Z,11.04
2023-05-14T00:56:59.974Z,10.91
2023-05-14T01:02:01.714Z,10.86
2023-05-14T01:07:16.742Z,10.74
2023-05-14T01:12:52.024Z,10.65
2023-05-14T01:18:04.194Z,10.66
2023-05-14T01:23:05.766Z,10.66
2023-05-14T01:28:18.997Z,10.54
2023-05-14T01:33:22.335Z,10.45
2023-05-14T01:38:24.629Z,10.45
2023-05-14T01:43:26.208Z,10.33
2023-05-14T01:48:28.103Z,10.10
2023-05-14T01:53:29.618Z,10.13
2023-05-14T01:58:31.048Z,10.15
2023-05-14T02:03:32.536Z,10.17
2023-05-14T02:08:34.065Z,10.25
2023-05-14T02:13:36.297Z,10.27
2023-05-14T02:18:37.771Z,10.02
2023-05-14T02:23:42.069Z,9.96
2023-05-14T02:28:44.056Z,10.01
2023-05-14T02:33:47.677Z,10.04
2023-05-14T02:38:49.327Z,9.97
2023-05-14T02:43:50.875Z,9.96
2023-05-14T02:48:52.417Z,9.96
2023-05-14T02:53:54.392Z,9.99
2023-05-14T02:58:55.886Z,9.88
2023-05-14T03:03:57.885Z,9.70
2023-05-14T03:08:59.320Z,9.68
2023-05-14T03:14:00.814Z,9.60
2023-05-14T03:19:02.277Z,9.53
2023-05-14T03:24:04.455Z,9.52
2023-05-14T03:29:05.858Z,9.34
2023-05-14T03:34:07.297Z,9.34
2023-05-14T03:39:08.760Z,9.48
2023-05-14T03:44:10.342Z,9.82
2023-05-14T03:49:11.873Z,10.07
2023-05-14T03:54:13.518Z,10.22
2023-05-14T03:59:14.944Z,10.41
2023-05-14T04:04:16.403Z,10.59
2023-05-14T04:09:17.864Z,10.76
2023-05-14T04:14:19.286Z,10.90
2023-05-14T04:19:20.793Z,10.99
2023-05-14T04:24:22.231Z,11.05
2023-05-14T04:29:23.670Z,11.09
2023-05-14T04:34:25.146Z,11.15
2023-05-14T04:39:26.613Z,11.32
2023-05-14T04:44:28.079Z,11.54
2023-05-14T04:49:30.949Z,11.78
2023-05-14T04:54:32.556Z,12.02
2023-05-14T04:59:34.032Z,12.24
2023-05-14T05:04:35.463Z,12.86
2023-05-14T05:09:36.891Z,14.96
2023-05-14T05:14:38.341Z,16.74
2023-05-14T05:19:43.837Z,17.45
2023-05-14T05:24:46.471Z,18.34
2023-05-14T05:29:48.521Z,19.02
2023-05-14T05:34:50.023Z,19.20
2023-05-14T05:39:51.443Z,19.59
2023-05-14T05:44:52.904Z,19.56
2023-05-14T05:49:54.298Z,18.80
2023-05-14T05:54:55.717Z,19.19
2023-05-14T05:59:57.154Z,19.35
2023-05-14T06:04:58.594Z,19.94
2023-05-14T06:10:00.178Z,20.24
2023-05-14T06:15:01.655Z,18.84
2023-05-14T06:20:03.304Z,20.53
2023-05-14T06:25:05.145Z,21.45
2023-05-14T06:30:07.072Z,22.28
2023-05-14T06:35:09.119Z,22.47
2023-05-14T06:40:11.245Z,22.16
2023-05-14T06:45:12.664Z,22.61
2023-05-14T06:50:14.098Z,23.60
2023-05-14T06:55:15.549Z,23.62
2023-05-14T07:00:17.501Z,23.67
2023-05-14T07:05:18.963Z,23.30
2023-05-14T07:10:20.419Z,23.21
2023-05-14T07:15:21.899Z,23.74
2023-05-14T07:20:23.762Z,23.14
2023-05-14T07:25:25.447Z,24.01
2023-05-14T07:30:26.987Z,22.79
2023-05-14T07:35:28.544Z,22.44
2023-05-14T07:40:30.002Z,23.29
2023-05-14T07:45:31.541Z,23.31
2023-05-14T07:50:32.988Z,23.36
2023-05-14T07:55:34.381Z,23.38
2023-05-14T08:00:35.812Z,24.43
2023-05-14T08:05:37.268Z,25.65
2023-05-14T08:10:38.739Z,25.16
2023-05-14T08:15:40.252Z,24.42
2023-05-14T08:20:41.687Z,24.59
2023-05-14T08:25:43.136Z,24.52
2023-05-14T08:35:54.682Z,23.70
2023-05-14T08:40:57.628Z,22.88
2023-05-14T08:46:01.373Z,22.45
2023-05-14T08:51:03.282Z,22.52
2023-05-14T08:56:06.670Z,23.47
2023-05-14T09:01:08.145Z,23.70
2023-05-14T09:06:11.085Z,23.44
2023-05-14T09:11:12.533Z,23.83
2023-05-14T09:16:15.020Z,23.88
2023-05-14T09:21:17.911Z,23.82
2023-05-14T09:26:23.651Z,23.80
2023-05-14T09:31:25.081Z,23.20
2023-05-14T09:36:27.125Z,23.24
2023-05-14T09:41:28.602Z,22.85
2023-05-14T09:46:30.107Z,22.91
2023-05-14T09:57:08.987Z,22.34
2023-05-14T10:02:34.819Z,22.55
2023-05-14T10:07:44.171Z,22.77
2023-05-14T10:12:52.670Z,22.71
2023-05-14T10:18:00.357Z,22.78
2023-05-14T10:23:02.140Z,23.53
2023-05-14T10:28:05.241Z,23.46
2023-05-14T10:33:13.125Z,23.27
2023-05-14T10:38:14.975Z,23.50
2023-05-14T10:43:17.539Z,23.57
2023-05-14T10:48:19.646Z,23.66
2023-05-14T10:53:34.464Z,24.25
2023-05-14T10:58:42.784Z,23.18
2023-05-14T11:03:46.640Z,23.54
2023-05-14T11:08:51.060Z,24.02
2023-05-14T11:13:53.902Z,23.72
2023-05-14T11:19:02.927Z,22.74
2023-05-14T11:24:04.822Z,23.47
2023-05-14T11:29:06.310Z,23.52
2023-05-14T11:34:07.910Z,23.52
2023-05-14T11:39:09.367Z,23.10
2023-05-14T11:44:10.965Z,23.37
2023-05-14T11:49:12.483Z,23.89
2023-05-14T11:54:14.278Z,23.73
2023-05-14T11:59:17.284Z,24.10
2023-05-14T12:04:19.699Z,23.54
2023-05-14T12:09:22.320Z,22.84
2023-05-14T12:14:24.371Z,23.58
2023-05-14T12:19:25.819Z,23.22
2023-05-14T12:24:29.107Z,22.79
2023-05-14T12:29:39.230Z,23.52
2023-05-14T12:34:40.729Z,23.60
2023-05-14T12:44:52.882Z,22.96
2023-05-14T12:49:54.353Z,23.08
2023-05-14T13:00:20.558Z,23.12
2023-05-14T13:10:45.766Z,23.19
2023-05-14T13:31:23.022Z,22.87
2023-05-14T13:47:26.928Z,22.40
2023-05-14T14:02:53.925Z,22.24
2023-05-14T14:08:01.066Z,22.07
2023-05-14T14:18:50.668Z,22.08
2023-05-14T14:29:15.336Z,22.10
2023-05-14T14:34:16.808Z,22.25
2023-05-14T14:39:18.227Z,22.33
2023-05-14T14:49:50.305Z,21.84
2023-05-14T15:00:03.306Z,21.82
2023-05-14T15:21:24.035Z,22.00
2023-05-14T15:26:25.453Z,22.10
2023-05-14T15:31:26.939Z,22.01
2023-05-14T15:36:28.366Z,22.14
2023-05-14T15:41:29.908Z,22.02
2023-05-14T15:46:31.411Z,21.97
2023-05-14T15:51:32.892Z,21.73
2023-05-14T15:56:34.389Z,21.70
2023-05-14T16:01:35.883Z,22.13
2023-05-14T16:06:37.346Z,21.97
2023-05-14T16:11:38.841Z,21.88
2023-05-14T16:16:40.274Z,21.76
2023-05-14T16:21:43.238Z,21.65
2023-05-14T16:37:48.559Z,20.84
2023-05-14T16:48:16.985Z,20.47
2023-05-14T16:53:19.581Z,20.43
2023-05-14T17:03:32.941Z,20.36
2023-05-14T17:08:34.410Z,20.40
2023-05-14T17:13:35.875Z,20.24
2023-05-14T17:18:37.394Z,20.42
2023-05-14T17:23:38.861Z,20.08
2023-05-14T17:28:40.262Z,20.13
2023-05-14T17:33:41.808Z,20.33
2023-05-14T17:38:43.319Z,20.42
2023-05-14T17:43:44.755Z,20.25
2023-05-14T17:48:51.309Z,20.23
2023-05-14T17:53:52.961Z,20.10
2023-05-14T17:58:54.403Z,19.72
2023-05-14T18:03:55.890Z,19.48
2023-05-14T18:08:57.547Z,18.96
2023-05-14T18:14:02.649Z,18.74
2023-05-14T18:19:04.691Z,18.53
2023-05-14T18:24:06.620Z,18.33
2023-05-14T18:29:08.451Z,18.15
2023-05-14T18:34:09.875Z,17.99
2023-05-14T18:39:11.318Z,17.89
2023-05-14T18:44:13.149Z,17.69
2023-05-14T18:49:14.626Z,17.64
2023-05-14T18:54:16.029Z,17.47
2023-05-14T18:59:17.524Z,17.29
2023-05-14T19:04:18.934Z,17.27
2023-05-14T19:14:25.276Z,16.78
2023-05-14T19:19:26.813Z,16.67
2023-05-14T19:24:28.298Z,16.65
2023-05-14T19:29:29.762Z,16.50
2023-05-14T19:34:31.246Z,16.46
2023-05-14T19:39:32.725Z,16.34
2023-05-14T19:44:34.231Z,16.21
2023-05-14T19:49:35.710Z,16.08
2023-05-14T19:54:37.154Z,15.89
2023-05-14T19:59:38.625Z,15.71
2023-05-14T20:04:40.130Z,15.63
2023-05-14T20:09:42.021Z,15.53
2023-05-14T20:14:43.530Z,15.48
2023-05-14T20:19:45.017Z,15.61
2023-05-14T20:24:46.446Z,15.71
2023-05-14T20:29:47.872Z,15.70
2023-05-14T20:34:49.274Z,15.59
2023-05-14T20:39:50.756Z,15.37
2023-05-14T20:44:53.084Z,15.29
2023-05-14T20:50:01.708Z,15.13
2023-05-14T20:55:03.357Z,15.05
2023-05-14T21:00:05.456Z,14.93
2023-05-14T21:05:07.062Z,14.87
2023-05-14T21:10:09.361Z,14.89
2023-05-14T21:15:11.062Z,14.82
2023-05-14T21:25:24.951Z,14.77
2023-05-14T21:30:33.344Z,14.37
2023-05-14T21:35:34.807Z,14.64
2023-05-14T21:40:36.520Z,14.57
2023-05-14T21:56:18.090Z,14.29
2023-05-14T22:01:19.581Z,14.13
2023-05-14T22:06:21.475Z,14.03
2023-05-14T22:11:23.008Z,14.00
2023-05-14T22:16:24.480Z,13.97
2023-05-14T22:21:26.041Z,13.93
2023-05-14T22:26:27.521Z,13.89
2023-05-14T22:31:30.799Z,13.78
2023-05-14T22:36:32.295Z,13.63
2023-05-14T22:41:40.450Z,13.48
2023-05-14T22:46:42.064Z,13.19
2023-05-14T22:51:43.551Z,13.10
2023-05-14T22:56:45.015Z,13.04
2023-05-14T23:01:46.563Z,12.90
2023-05-14T23:06:48.133Z,12.70
2023-05-14T23:11:49.680Z,12.70
2023-05-14T23:16:51.141Z,12.64
2023-05-14T23:21:52.572Z,12.60
2023-05-14T23:26:54.027Z,12.57
2023-05-14T23:31:55.497Z,12.47
2023-05-14T23:36:57.030Z,12.41
2023-05-14T23:41:58.475Z,12.33
2023-05-14T23:46:59.998Z,12.33
2023-05-14T23:52:01.990Z,12.43
2023-05-14T23:57:15.272Z,12.47
